createdAt,value
2018-11-25T00:06:53.785Z,97028.94
2018-11-25T00:17:11.800Z,97030.73
2018-11-25T00:27:29.855Z,97023.75
2018-11-25T00:37:48.867Z,97008.63
2018-11-25T00:48:05.448Z,97001.84
2018-11-25T00:58:23.524Z,96997.56
2018-11-25T01:08:41.826Z,97005.08
2018-11-25T01:18:59.919Z,96994.00
2018-11-25T01:29:18.197Z,96981.45
2018-11-25T01:39:36.193Z,96970.55
2018-11-25T01:49:54.541Z,96953.27
2018-11-25T02:00:22.346Z,96937.05
2018-11-25T02:10:40.588Z,96925.66
2018-11-25T02:20:59.000Z,96910.23
2018-11-25T02:31:17.350Z,96890.50
2018-11-25T02:41:35.480Z,96877.22
2018-11-25T02:51:53.480Z,96881.80
2018-11-25T03:02:10.966Z,96868.77
2018-11-25T03:12:28.935Z,96861.49
2018-11-25T03:22:47.505Z,96853.40
2018-11-25T03:33:05.884Z,96851.16
2018-11-25T03:43:28.823Z,96859.48
2018-11-25T03:53:47.415Z,96848.80
2018-11-25T04:04:06.152Z,96850.56
2018-11-25T04:14:25.175Z,96848.81
2018-11-25T04:24:43.579Z,96846.58
2018-11-25T04:35:02.084Z,96856.19
2018-11-25T04:45:21.629Z,96851.73
2018-11-25T04:55:40.112Z,96833.89
2018-11-25T05:05:58.671Z,96822.72
2018-11-25T05:16:17.689Z,96811.70
2018-11-25T05:26:35.678Z,96810.86
2018-11-25T05:36:53.758Z,96812.15
2018-11-25T05:47:11.864Z,96806.17
2018-11-25T05:57:30.286Z,96789.73
2018-11-25T06:07:48.762Z,96782.92
2018-11-25T06:18:06.563Z,96770.45
2018-11-25T06:28:25.846Z,96770.55
2018-11-25T06:38:44.529Z,96767.25
2018-11-25T06:49:03.207Z,96782.42
2018-11-25T06:59:21.296Z,96786.76
2018-11-25T07:09:39.402Z,96792.39
2018-11-25T07:19:57.338Z,96781.13
2018-11-25T07:30:22.277Z,96784.64
2018-11-25T07:40:40.595Z,96778.89
2018-11-25T07:50:58.745Z,96769.80
2018-11-25T08:01:16.615Z,96758.70
2018-11-25T08:11:34.623Z,96753.41
2018-11-25T08:21:52.825Z,96741.06
2018-11-25T08:32:10.925Z,96746.69
2018-11-25T08:42:29.193Z,96735.05
2018-11-25T08:52:51.391Z,96733.90
2018-11-25T09:03:09.817Z,96719.30
2018-11-25T09:13:27.862Z,96701.91
2018-11-25T09:23:45.610Z,96686.28
2018-11-25T09:34:03.875Z,96671.30
2018-11-25T09:44:21.662Z,96669.13
2018-11-25T09:54:39.657Z,96655.61
2018-11-25T10:04:57.388Z,96638.92
2018-11-25T10:15:16.883Z,96631.40
2018-11-25T10:25:35.233Z,96621.64
2018-11-25T10:35:53.179Z,96604.65
2018-11-25T10:46:11.610Z,96589.31
2018-11-25T10:56:29.333Z,96555.36
2018-11-25T11:07:05.596Z,96544.72
2018-11-25T11:17:24.225Z,96528.23
2018-11-25T11:28:01.607Z,96513.86
2018-11-25T11:38:22.534Z,96491.64
2018-11-25T11:48:41.837Z,96489.84
2018-11-25T11:59:06.648Z,96465.02
2018-11-25T12:09:25.695Z,96442.69
2018-11-25T12:19:44.452Z,96428.50
2018-11-25T12:30:04.658Z,96424.92
2018-11-25T12:40:26.285Z,96410.20
2018-11-25T12:50:44.617Z,96392.27
2018-11-25T13:01:03.070Z,96367.69
2018-11-25T13:11:21.138Z,96349.94
2018-11-25T13:21:39.078Z,96342.49
2018-11-25T13:31:57.879Z,96340.13
2018-11-25T13:42:17.605Z,96331.49
2018-11-25T13:52:35.417Z,96324.75
2018-11-25T14:02:53.747Z,96327.97
2018-11-25T14:13:14.182Z,96324.33
2018-11-25T14:23:33.087Z,96321.48
2018-11-25T14:33:52.175Z,96301.52
2018-11-25T14:44:10.952Z,96299.39
2018-11-25T14:54:29.524Z,96288.01
2018-11-25T15:04:50.397Z,96283.25
2018-11-25T15:15:13.100Z,96278.50
2018-11-25T15:25:33.118Z,96275.38
2018-11-25T15:35:52.354Z,96271.92
2018-11-25T15:46:10.604Z,96272.80
2018-11-25T15:56:29.383Z,96260.64
2018-11-25T16:06:48.161Z,96260.34
2018-11-25T16:17:06.478Z,96262.38
2018-11-25T16:27:24.756Z,96260.33
2018-11-25T16:37:43.278Z,96261.13
2018-11-25T16:48:01.687Z,96249.71
2018-11-25T16:58:20.341Z,96251.66
2018-11-25T17:08:40.164Z,96245.39
2018-11-25T17:18:58.839Z,96245.02
2018-11-25T17:29:17.198Z,96244.81
2018-11-25T17:39:35.567Z,96245.80
2018-11-25T17:49:53.672Z,96235.87
2018-11-25T18:00:56.657Z,96233.18
2018-11-25T18:11:14.806Z,96232.76
2018-11-25T18:21:32.487Z,96226.34
2018-11-25T18:31:50.663Z,96208.05
2018-11-25T18:42:08.925Z,96210.12
2018-11-25T18:52:26.694Z,96203.64
2018-11-25T19:02:45.266Z,96199.27
2018-11-25T19:13:04.323Z,96177.82
2018-11-25T19:23:23.900Z,96171.10
2018-11-25T19:33:42.595Z,96160.84
2018-11-25T19:44:00.399Z,96158.86
2018-11-25T19:54:19.047Z,96143.55
2018-11-25T20:04:38.076Z,96148.78
2018-11-25T20:14:56.022Z,96149.67
2018-11-25T20:25:15.241Z,96145.30
2018-11-25T20:35:33.968Z,96141.83
2018-11-25T20:46:10.129Z,96121.45
2018-11-25T20:56:28.491Z,96117.05
2018-11-25T21:06:47.407Z,96112.72
2018-11-25T21:17:05.501Z,96110.14
2018-11-25T21:27:23.753Z,96105.41
2018-11-25T22:36:30.588Z,96079.87
2018-11-25T22:46:49.520Z,96078.27
2018-11-25T22:57:10.035Z,96075.10
2018-11-25T23:07:29.375Z,96066.75
2018-11-25T23:17:48.576Z,96053.16
2018-11-25T23:28:07.296Z,96050.46
2018-11-25T23:38:27.238Z,96036.85
2018-11-25T23:48:47.381Z,96031.67
2018-11-25T23:59:07.091Z,96026.28
